createdAt,value
2022-11-26T00:00:13.146Z,64.93
2022-11-26T00:01:23.914Z,64.97
2022-11-26T00:02:32.231Z,65.11
2022-11-26T00:03:36.701Z,64.65
2022-11-26T00:04:40.125Z,64.70
2022-11-26T00:05:42.910Z,64.98
2022-11-26T00:06:44.890Z,65.12
2022-11-26T00:07:51.289Z,64.93
2022-11-26T00:08:59.140Z,65.13
2022-11-26T00:10:00.634Z,65.06
2022-11-26T00:11:10.633Z,65.16
2022-11-26T00:12:37.770Z,65.17
2022-11-26T00:13:39.219Z,65.20
2022-11-26T00:14:40.692Z,65.47
2022-11-26T00:15:42.139Z,65.48
2022-11-26T00:16:43.803Z,65.44
2022-11-26T00:17:45.442Z,65.39
2022-11-26T00:18:47.130Z,65.65
2022-11-26T00:19:48.691Z,65.83
2022-11-26T00:20:51.223Z,65.80
2022-11-26T00:21:58.478Z,65.71
2022-11-26T00:23:02.461Z,65.85
2022-11-26T00:24:04.072Z,65.90
2022-11-26T00:25:05.746Z,65.90
2022-11-26T00:26:07.242Z,65.99
2022-11-26T00:27:10.737Z,66.24
2022-11-26T00:28:23.297Z,66.26
2022-11-26T00:29:24.853Z,66.19
2022-11-26T00:30:27.277Z,66.30
2022-11-26T00:31:28.959Z,66.21
2022-11-26T00:32:34.458Z,66.41
2022-11-26T00:33:38.689Z,66.07
2022-11-26T00:34:40.320Z,65.93
2022-11-26T00:35:41.951Z,65.96
2022-11-26T00:36:43.584Z,65.80
2022-11-26T00:37:52.044Z,65.78
2022-11-26T00:38:56.895Z,65.84
2022-11-26T00:39:58.413Z,65.67
2022-11-26T00:41:00.044Z,65.80
2022-11-26T00:42:01.500Z,65.88
2022-11-26T00:43:03.047Z,65.79
2022-11-26T00:44:19.593Z,65.71
2022-11-26T00:45:24.072Z,65.90
2022-11-26T00:46:25.745Z,65.84
2022-11-26T00:48:45.474Z,65.73
2022-11-26T00:49:46.946Z,65.56
2022-11-26T00:50:54.314Z,65.71
2022-11-26T00:51:55.788Z,65.65
2022-11-26T00:53:01.050Z,65.70
2022-11-26T00:54:05.386Z,65.83
2022-11-26T00:55:09.599Z,65.84
2022-11-26T00:56:15.123Z,65.79
2022-11-26T00:57:16.574Z,65.99
2022-11-26T00:58:26.262Z,66.11
2022-11-26T00:59:27.705Z,66.36
2022-11-26T01:00:30.106Z,66.39
2022-11-26T01:01:34.502Z,66.53
2022-11-26T01:02:36.053Z,66.80
2022-11-26T01:03:37.606Z,66.82
2022-11-26T01:04:41.854Z,66.77
2022-11-26T01:05:54.245Z,66.70
2022-11-26T01:06:58.111Z,66.98
2022-11-26T01:08:00.451Z,67.04
2022-11-26T01:09:09.154Z,66.79
2022-11-26T01:10:18.013Z,66.78
2022-11-26T01:11:20.707Z,66.79
2022-11-26T01:12:22.184Z,66.87
2022-11-26T01:13:26.071Z,67.13
2022-11-26T01:14:27.609Z,66.91
2022-11-26T01:15:29.059Z,67.06
2022-11-26T01:16:31.291Z,67.05
2022-11-26T01:17:35.250Z,67.11
2022-11-26T01:18:39.826Z,67.25
2022-11-26T01:20:06.998Z,67.13
2022-11-26T01:21:10.474Z,67.14
2022-11-26T01:22:15.226Z,67.12
2022-11-26T01:23:17.615Z,67.32
2022-11-26T01:24:19.086Z,67.03
2022-11-26T01:25:23.115Z,67.27
2022-11-26T01:26:25.439Z,67.34
2022-11-26T01:27:26.990Z,67.44
2022-11-26T01:28:28.481Z,67.38
2022-11-26T01:29:30.038Z,67.26
2022-11-26T01:30:32.011Z,67.28
2022-11-26T01:31:33.521Z,67.35
2022-11-26T01:32:37.980Z,67.25
2022-11-26T01:33:41.579Z,67.32
2022-11-26T01:34:43.029Z,67.29
2022-11-26T01:35:44.551Z,67.17
2022-11-26T01:36:46.065Z,67.33
2022-11-26T01:37:50.040Z,67.13
2022-11-26T01:38:52.512Z,67.22
2022-11-26T01:39:53.994Z,67.08
2022-11-26T01:41:28.121Z,67.02
2022-11-26T01:42:36.459Z,67.06
2022-11-26T01:43:41.005Z,67.10
2022-11-26T01:44:44.381Z,67.11
2022-11-26T01:45:45.910Z,67.08
2022-11-26T01:46:47.591Z,66.96
2022-11-26T01:47:51.501Z,67.19
2022-11-26T01:48:53.234Z,67.09
2022-11-26T01:50:16.417Z,67.12
2022-11-26T01:51:25.621Z,67.19
2022-11-26T01:52:27.094Z,67.29
2022-11-26T01:53:29.984Z,67.26
2022-11-26T01:54:41.825Z,67.30
2022-11-26T01:55:50.059Z,67.54
2022-11-26T01:56:51.761Z,67.57
2022-11-26T01:58:02.746Z,67.36
2022-11-26T01:59:08.262Z,67.65
2022-11-26T02:00:09.895Z,67.97
2022-11-26T02:01:16.076Z,67.98
2022-11-26T02:02:17.669Z,67.94
2022-11-26T02:03:19.180Z,68.07
2022-11-26T02:04:27.249Z,68.01
2022-11-26T02:05:29.543Z,67.96
2022-11-26T02:06:34.318Z,67.94
2022-11-26T02:07:35.850Z,67.83
2022-11-26T02:08:37.375Z,67.84
2022-11-26T02:09:38.835Z,67.96
2022-11-26T02:10:40.290Z,68.08
2022-11-26T02:11:41.788Z,68.03
2022-11-26T02:12:43.225Z,68.13
2022-11-26T02:13:45.538Z,68.02
2022-11-26T02:14:54.220Z,68.42
2022-11-26T02:15:59.815Z,68.04
2022-11-26T02:17:09.747Z,68.02
2022-11-26T02:18:11.222Z,67.89
2022-11-26T02:19:31.139Z,67.82
2022-11-26T02:20:53.831Z,67.78
2022-11-26T02:22:04.577Z,67.68
2022-11-26T02:23:20.645Z,67.85
2022-11-26T02:24:35.768Z,67.55
2022-11-26T02:25:40.526Z,67.69
2022-11-26T02:26:54.175Z,67.51
2022-11-26T02:28:28.222Z,67.61
2022-11-26T02:29:47.974Z,67.57
2022-11-26T02:30:52.559Z,67.78
2022-11-26T02:32:01.064Z,67.57
2022-11-26T02:33:06.486Z,67.96
2022-11-26T02:34:13.225Z,68.03
2022-11-26T02:35:17.282Z,68.06
2022-11-26T02:36:29.756Z,68.13
2022-11-26T02:37:32.900Z,68.12
2022-11-26T02:38:37.782Z,68.09
2022-11-26T02:39:39.233Z,67.92
2022-11-26T02:42:00.095Z,68.08
2022-11-26T02:43:01.591Z,68.18
2022-11-26T02:44:03.070Z,68.09
2022-11-26T02:45:06.515Z,67.82
2022-11-26T02:46:12.239Z,67.77
2022-11-26T02:47:17.785Z,67.96
2022-11-26T02:48:23.457Z,68.01
2022-11-26T02:49:24.944Z,67.97
2022-11-26T02:50:27.730Z,68.12
2022-11-26T02:51:35.172Z,68.08
2022-11-26T02:52:36.729Z,67.99
2022-11-26T02:53:38.195Z,68.03
2022-11-26T02:54:39.835Z,67.92
2022-11-26T02:55:42.923Z,68.08
2022-11-26T02:56:45.171Z,68.04
2022-11-26T02:57:47.499Z,68.16
2022-11-26T02:58:52.250Z,68.17
2022-11-26T02:59:54.046Z,68.16
2022-11-26T03:00:55.565Z,68.30
2022-11-26T03:01:58.759Z,68.52
2022-11-26T03:03:02.042Z,68.32
2022-11-26T03:04:07.742Z,68.37
2022-11-26T03:05:09.285Z,68.55
2022-11-26T03:06:11.250Z,68.52
2022-11-26T03:07:14.679Z,68.79
2022-11-26T03:08:16.447Z,68.81
2022-11-26T03:09:17.992Z,68.89
2022-11-26T03:10:26.006Z,68.93
2022-11-26T03:11:27.753Z,69.00
2022-11-26T03:12:29.385Z,68.93
2022-11-26T03:13:31.066Z,68.97
2022-11-26T03:14:32.514Z,68.77
2022-11-26T03:15:41.471Z,68.92
2022-11-26T03:16:43.099Z,68.91
2022-11-26T03:17:44.658Z,69.12
2022-11-26T03:18:46.103Z,69.37
2022-11-26T03:19:48.153Z,69.46
2022-11-26T03:20:52.397Z,69.16
2022-11-26T03:21:54.154Z,69.39
2022-11-26T03:22:58.671Z,69.19
2022-11-26T03:24:00.638Z,69.39
2022-11-26T03:25:02.111Z,69.43
2022-11-26T03:26:03.553Z,69.54
2022-11-26T03:27:05.041Z,69.58
2022-11-26T03:28:06.520Z,69.53
2022-11-26T03:29:07.966Z,69.65
2022-11-26T03:30:09.685Z,69.56
2022-11-26T03:31:11.218Z,69.75
2022-11-26T03:32:12.703Z,69.42
2022-11-26T03:33:14.197Z,69.52
2022-11-26T03:34:15.625Z,69.64
2022-11-26T03:35:17.118Z,69.61
2022-11-26T03:36:18.611Z,69.51
2022-11-26T03:37:20.194Z,69.41
2022-11-26T03:38:21.723Z,69.41
2022-11-26T03:39:23.195Z,69.27
2022-11-26T03:40:24.659Z,69.49
2022-11-26T03:41:26.125Z,69.74
2022-11-26T03:42:27.620Z,69.42
2022-11-26T03:43:29.066Z,69.66
2022-11-26T03:44:33.736Z,69.49
2022-11-26T03:45:39.279Z,69.45
2022-11-26T03:46:40.781Z,69.05
2022-11-26T03:47:42.305Z,69.28
2022-11-26T03:48:43.809Z,69.18
2022-11-26T03:49:47.310Z,69.31
2022-11-26T03:50:48.949Z,69.44
2022-11-26T03:51:50.398Z,69.29
2022-11-26T03:52:51.845Z,69.19
2022-11-26T03:53:53.352Z,69.08
2022-11-26T03:54:54.809Z,68.89
2022-11-26T03:55:56.289Z,68.76
2022-11-26T03:56:57.802Z,68.57
2022-11-26T03:57:59.255Z,68.71
2022-11-26T03:59:00.726Z,68.38
2022-11-26T04:00:02.423Z,68.09
2022-11-26T04:01:09.447Z,68.22
2022-11-26T04:02:10.922Z,68.05
2022-11-26T04:03:12.621Z,67.91
2022-11-26T04:04:16.286Z,67.91
2022-11-26T04:05:17.778Z,67.96
2022-11-26T04:06:21.672Z,67.75
2022-11-26T04:07:25.494Z,67.84
2022-11-26T04:08:26.988Z,67.70
2022-11-26T04:09:28.463Z,67.70
2022-11-26T04:10:29.953Z,68.12
2022-11-26T04:11:31.460Z,68.49
2022-11-26T04:12:33.014Z,68.29
2022-11-26T04:13:34.516Z,68.54
2022-11-26T04:14:36.269Z,68.37
2022-11-26T04:15:38.004Z,68.87
2022-11-26T04:16:39.525Z,68.63
2022-11-26T04:17:43.188Z,68.89
2022-11-26T04:18:44.707Z,69.21
2022-11-26T04:19:46.243Z,69.00
2022-11-26T04:20:52.952Z,69.07
2022-11-26T04:21:54.910Z,68.76
2022-11-26T04:22:56.382Z,69.05
2022-11-26T04:23:57.843Z,69.15
2022-11-26T04:24:59.313Z,69.69
2022-11-26T04:26:00.881Z,69.39
2022-11-26T04:27:02.632Z,69.57
2022-11-26T04:28:04.233Z,69.23
2022-11-26T04:29:05.667Z,69.46
2022-11-26T04:30:07.825Z,69.69
2022-11-26T04:31:09.351Z,69.82
2022-11-26T04:32:13.406Z,69.91
2022-11-26T04:33:15.066Z,69.88
2022-11-26T04:34:16.493Z,69.78
2022-11-26T04:35:17.986Z,69.60
2022-11-26T04:36:25.647Z,69.78
2022-11-26T04:37:27.086Z,69.62
2022-11-26T04:38:28.534Z,69.52
2022-11-26T04:39:30.015Z,69.46
2022-11-26T04:40:31.581Z,69.28
2022-11-26T04:41:33.050Z,68.95
2022-11-26T04:42:34.639Z,69.25
2022-11-26T04:43:36.084Z,69.09
2022-11-26T04:44:37.786Z,68.91
2022-11-26T04:45:39.420Z,69.06
2022-11-26T04:46:40.942Z,69.30
2022-11-26T04:47:43.266Z,69.10
2022-11-26T04:48:44.867Z,68.93
2022-11-26T04:49:46.300Z,68.95
2022-11-26T04:50:48.587Z,69.11
2022-11-26T04:51:50.084Z,68.80
2022-11-26T04:52:51.626Z,69.07
2022-11-26T04:53:55.780Z,68.79
2022-11-26T04:54:58.158Z,69.01
2022-11-26T04:55:59.672Z,68.62
2022-11-26T04:57:01.193Z,69.09
2022-11-26T04:58:02.684Z,69.12
2022-11-26T04:59:04.210Z,69.63
2022-11-26T05:00:06.406Z,69.66
2022-11-26T05:01:07.974Z,69.60
2022-11-26T05:02:09.522Z,69.50
2022-11-26T05:03:11.112Z,69.68
2022-11-26T05:04:12.616Z,69.47
2022-11-26T05:05:14.112Z,69.68
2022-11-26T05:06:16.142Z,69.71
2022-11-26T05:07:17.756Z,69.52
2022-11-26T05:08:19.279Z,69.81
2022-11-26T05:09:20.802Z,69.60
2022-11-26T05:10:22.350Z,69.53
2022-11-26T05:11:23.791Z,69.53
2022-11-26T05:12:25.294Z,69.63
2022-11-26T05:13:26.755Z,69.56
2022-11-26T05:14:28.237Z,69.15
2022-11-26T05:15:32.680Z,69.54
2022-11-26T05:16:34.258Z,69.35
2022-11-26T05:17:35.753Z,69.19
2022-11-26T05:18:37.177Z,69.57
2022-11-26T05:19:38.650Z,69.58
2022-11-26T05:20:40.125Z,69.63
2022-11-26T05:21:41.635Z,69.88
2022-11-26T05:22:43.106Z,69.77
2022-11-26T05:23:50.738Z,70.07
2022-11-26T05:24:52.222Z,70.42
2022-11-26T05:25:53.891Z,69.97
2022-11-26T05:26:57.347Z,69.98
2022-11-26T05:27:58.962Z,69.80
2022-11-26T05:29:00.570Z,69.69
2022-11-26T05:30:02.302Z,69.54
2022-11-26T05:31:04.095Z,69.79
2022-11-26T05:32:05.656Z,69.45
2022-11-26T05:33:07.121Z,69.58
2022-11-26T05:34:08.630Z,69.63
2022-11-26T05:35:10.094Z,69.63
2022-11-26T05:36:11.600Z,70.05
2022-11-26T05:37:13.090Z,70.02
2022-11-26T05:38:14.551Z,69.79
2022-11-26T05:39:16.557Z,69.97
2022-11-26T05:40:18.136Z,70.10
2022-11-26T05:41:19.591Z,70.04
2022-11-26T05:42:21.088Z,69.81
2022-11-26T05:43:22.991Z,69.87
2022-11-26T05:44:24.458Z,69.68
2022-11-26T05:45:25.981Z,69.75
2022-11-26T05:46:27.434Z,69.50
2022-11-26T05:47:28.920Z,69.82
2022-11-26T05:48:30.413Z,69.35
2022-11-26T05:49:31.882Z,69.41
2022-11-26T05:50:33.377Z,69.24
2022-11-26T05:51:34.918Z,68.67
2022-11-26T05:52:36.449Z,68.81
2022-11-26T05:53:37.905Z,68.67
2022-11-26T05:54:39.680Z,68.42
2022-11-26T05:55:41.406Z,68.48
2022-11-26T05:56:42.889Z,68.21
2022-11-26T05:57:44.329Z,67.77
2022-11-26T05:58:45.864Z,67.57
2022-11-26T05:59:48.989Z,67.36
2022-11-26T06:00:50.444Z,67.68
2022-11-26T06:01:52.012Z,67.20
2022-11-26T06:02:53.624Z,67.14
2022-11-26T06:03:55.254Z,67.14
2022-11-26T06:04:56.755Z,67.16
2022-11-26T06:05:58.210Z,66.96
2022-11-26T06:06:59.714Z,67.77
2022-11-26T06:08:01.210Z,67.35
2022-11-26T06:09:02.763Z,67.67
2022-11-26T06:10:04.654Z,67.49
2022-11-26T06:11:06.126Z,67.44
2022-11-26T06:12:07.800Z,67.62
2022-11-26T06:13:09.298Z,67.30
2022-11-26T06:14:10.828Z,67.52
2022-11-26T06:15:12.322Z,66.95
2022-11-26T06:16:13.813Z,67.32
2022-11-26T06:17:15.363Z,68.08
2022-11-26T06:18:17.394Z,68.30
2022-11-26T06:19:18.887Z,68.56
2022-11-26T06:20:20.345Z,69.68
2022-11-26T06:21:24.840Z,69.93
2022-11-26T06:22:28.386Z,70.06
2022-11-26T06:23:30.003Z,70.91
2022-11-26T06:24:31.433Z,70.67
2022-11-26T06:25:32.891Z,71.32
2022-11-26T06:26:34.410Z,71.59
2022-11-26T06:27:35.912Z,71.50
2022-11-26T06:28:37.521Z,71.29
2022-11-26T06:29:39.025Z,70.49
2022-11-26T06:30:40.523Z,70.94
2022-11-26T06:31:42.030Z,70.78
2022-11-26T06:32:43.618Z,70.97
2022-11-26T06:33:45.050Z,71.31
2022-11-26T06:34:51.136Z,71.39
2022-11-26T06:35:58.869Z,71.09
2022-11-26T06:37:00.331Z,70.70
2022-11-26T06:38:01.834Z,71.33
2022-11-26T06:39:03.412Z,70.73
2022-11-26T06:40:05.081Z,70.68
2022-11-26T06:41:07.126Z,71.27
2022-11-26T06:42:08.775Z,71.05
2022-11-26T06:43:10.299Z,71.47
2022-11-26T06:44:11.798Z,71.59
2022-11-26T06:45:13.283Z,71.31
2022-11-26T06:46:14.779Z,71.10
2022-11-26T06:47:16.361Z,71.34
2022-11-26T06:48:24.663Z,71.25
2022-11-26T06:49:26.103Z,70.99
2022-11-26T06:50:27.557Z,70.69
2022-11-26T06:51:29.014Z,70.78
2022-11-26T06:52:30.502Z,70.83
2022-11-26T06:53:32.189Z,71.02
2022-11-26T06:54:33.710Z,71.21
2022-11-26T06:55:38.050Z,71.27
2022-11-26T06:56:39.545Z,71.29
2022-11-26T06:57:41.065Z,71.19
2022-11-26T06:58:42.798Z,71.03
2022-11-26T06:59:44.263Z,71.03
2022-11-26T07:00:45.737Z,70.59
2022-11-26T07:01:47.276Z,70.47
2022-11-26T07:02:56.561Z,70.01
2022-11-26T07:03:58.094Z,70.08
2022-11-26T07:04:59.566Z,69.70
2022-11-26T07:06:01.023Z,69.61
2022-11-26T07:07:02.495Z,69.66
2022-11-26T07:08:04.077Z,69.49
2022-11-26T07:09:09.507Z,68.98
2022-11-26T07:10:11.023Z,68.85
2022-11-26T07:11:12.575Z,68.84
2022-11-26T07:12:16.482Z,68.80
2022-11-26T07:13:18.013Z,68.66
2022-11-26T07:14:19.518Z,68.40
2022-11-26T07:15:20.987Z,68.29
2022-11-26T07:16:22.657Z,68.53
2022-11-26T07:17:24.315Z,68.15
2022-11-26T07:18:26.007Z,68.04
2022-11-26T07:19:27.492Z,68.19
2022-11-26T07:20:29.028Z,67.94
2022-11-26T07:21:33.199Z,67.87
2022-11-26T07:22:35.425Z,68.06
2022-11-26T07:23:38.297Z,68.34
2022-11-26T07:24:40.131Z,68.61
2022-11-26T07:25:41.752Z,68.88
2022-11-26T07:26:43.237Z,68.54
2022-11-26T07:27:45.487Z,68.41
2022-11-26T07:28:49.887Z,68.68
2022-11-26T07:29:51.908Z,68.58
2022-11-26T07:30:53.457Z,68.01
2022-11-26T07:31:59.907Z,68.61
2022-11-26T07:33:01.916Z,68.82
2022-11-26T07:34:03.952Z,68.96
2022-11-26T07:35:08.528Z,69.62
2022-11-26T07:36:23.932Z,69.72
2022-11-26T07:37:25.565Z,70.24
2022-11-26T07:38:27.663Z,69.78
2022-11-26T07:39:29.894Z,70.23
2022-11-26T07:40:34.380Z,70.16
2022-11-26T07:41:35.827Z,69.81
2022-11-26T07:42:40.090Z,70.10
2022-11-26T07:43:42.260Z,69.46
2022-11-26T07:44:43.743Z,69.36
2022-11-26T07:45:45.236Z,69.31
2022-11-26T07:46:46.750Z,69.72
2022-11-26T07:47:48.185Z,69.72
2022-11-26T07:48:49.782Z,69.71
2022-11-26T07:49:51.286Z,69.46
2022-11-26T07:50:52.738Z,69.61
2022-11-26T07:51:54.293Z,69.58
2022-11-26T07:52:55.952Z,69.73
2022-11-26T07:53:58.144Z,69.66
2022-11-26T07:54:59.592Z,70.09
2022-11-26T07:56:03.833Z,70.16
2022-11-26T07:57:05.276Z,70.24
2022-11-26T07:58:06.773Z,70.84
2022-11-26T07:59:08.306Z,70.98
2022-11-26T08:00:09.950Z,71.25
2022-11-26T08:01:21.443Z,71.60
2022-11-26T08:02:23.028Z,71.43
2022-11-26T08:03:25.544Z,72.34
2022-11-26T08:04:27.064Z,72.31
2022-11-26T08:05:30.328Z,72.25
2022-11-26T08:06:31.894Z,72.32
2022-11-26T08:07:34.815Z,72.33
2022-11-26T08:08:36.781Z,72.48
2022-11-26T08:09:38.271Z,72.36
2022-11-26T08:10:40.063Z,72.38
2022-11-26T08:11:41.510Z,72.02
2022-11-26T08:12:42.973Z,72.11
2022-11-26T08:13:44.695Z,72.61
2022-11-26T08:14:48.501Z,72.53
2022-11-26T08:15:49.998Z,72.68
2022-11-26T08:16:52.401Z,72.76
2022-11-26T08:17:54.835Z,73.16
2022-11-26T08:18:56.687Z,72.77
2022-11-26T08:19:58.228Z,73.05
2022-11-26T08:21:00.921Z,72.77
2022-11-26T08:22:02.406Z,72.90
2022-11-26T08:23:04.225Z,72.74
2022-11-26T08:24:12.666Z,72.82
2022-11-26T08:25:14.409Z,72.62
2022-11-26T08:26:27.455Z,72.26
2022-11-26T08:27:33.050Z,72.36
2022-11-26T08:28:37.082Z,72.52
2022-11-26T08:29:38.583Z,72.57
2022-11-26T08:30:40.042Z,72.59
2022-11-26T08:31:45.704Z,72.61
2022-11-26T08:32:50.891Z,72.46
2022-11-26T08:33:52.766Z,72.31
2022-11-26T08:34:54.414Z,72.22
2022-11-26T08:36:06.599Z,72.32
2022-11-26T08:37:11.929Z,72.31
2022-11-26T08:38:13.503Z,72.47
2022-11-26T08:39:15.631Z,72.36
2022-11-26T08:40:17.279Z,72.46
2022-11-26T08:41:18.779Z,72.33
2022-11-26T08:42:20.499Z,72.42
2022-11-26T08:43:30.806Z,72.19
2022-11-26T08:44:42.505Z,72.34
2022-11-26T08:45:44.367Z,72.37
2022-11-26T08:46:45.864Z,72.80
2022-11-26T08:47:50.078Z,72.42
2022-11-26T08:48:54.749Z,72.40
2022-11-26T08:49:56.507Z,72.18
2022-11-26T08:51:01.914Z,72.29
2022-11-26T08:52:03.518Z,72.30
2022-11-26T08:53:04.951Z,72.27
2022-11-26T08:54:10.906Z,72.37
2022-11-26T08:55:15.126Z,72.20
2022-11-26T08:56:19.593Z,71.97
2022-11-26T08:57:21.566Z,71.85
2022-11-26T08:58:23.277Z,72.32
2022-11-26T08:59:27.686Z,72.14
2022-11-26T09:00:29.464Z,71.42
2022-11-26T09:01:32.540Z,71.29
2022-11-26T09:02:36.980Z,71.34
2022-11-26T09:03:38.459Z,71.12
2022-11-26T09:04:40.274Z,71.21
2022-11-26T09:05:54.562Z,71.00
2022-11-26T09:06:56.055Z,71.41
2022-11-26T09:08:00.750Z,71.02
2022-11-26T09:09:15.047Z,70.99
2022-11-26T09:10:17.008Z,70.67
2022-11-26T09:11:18.523Z,70.72
2022-11-26T09:12:20.034Z,70.30
2022-11-26T09:13:21.726Z,70.42
2022-11-26T09:14:31.356Z,70.54
2022-11-26T09:15:35.232Z,70.68
2022-11-26T09:16:36.832Z,70.72
2022-11-26T09:17:38.391Z,70.87
2022-11-26T09:18:39.913Z,70.19
2022-11-26T09:19:41.493Z,70.26
2022-11-26T09:20:43.035Z,70.03
2022-11-26T09:21:44.881Z,69.91
2022-11-26T09:22:46.388Z,69.48
2022-11-26T09:23:48.170Z,69.97
2022-11-26T09:24:49.694Z,70.27
2022-11-26T09:25:51.231Z,70.10
2022-11-26T09:26:53.354Z,71.19
2022-11-26T09:27:57.274Z,69.57
2022-11-26T09:28:58.833Z,69.48
2022-11-26T09:30:00.342Z,68.34
2022-11-26T09:31:02.070Z,67.80
2022-11-26T09:33:25.711Z,67.92
2022-11-26T09:34:27.853Z,67.67
2022-11-26T09:35:29.412Z,66.00
2022-11-26T09:36:30.954Z,66.62
2022-11-26T09:37:34.722Z,66.79
2022-11-26T09:38:39.483Z,67.06
2022-11-26T09:39:49.903Z,65.18
2022-11-26T09:40:57.471Z,64.87
2022-11-26T09:42:09.088Z,65.05
2022-11-26T09:43:17.345Z,64.28
2022-11-26T09:44:37.389Z,62.45
2022-11-26T09:45:43.365Z,62.56
2022-11-26T09:47:10.395Z,62.96
2022-11-26T09:48:12.697Z,62.73
2022-11-26T09:49:14.767Z,61.86
2022-11-26T09:50:16.209Z,61.43
2022-11-26T09:51:20.391Z,60.13
2022-11-26T09:52:24.030Z,59.88
2022-11-26T09:53:26.299Z,60.52
2022-11-26T09:54:29.607Z,60.41
2022-11-26T09:55:34.926Z,59.19
2022-11-26T09:56:36.465Z,59.43
2022-11-26T09:57:46.032Z,59.37
2022-11-26T09:59:01.786Z,59.07
2022-11-26T10:00:04.885Z,58.91
2022-11-26T10:01:06.751Z,58.85
2022-11-26T10:02:12.685Z,59.00
2022-11-26T10:03:15.189Z,59.31
2022-11-26T10:04:27.408Z,59.77
2022-11-26T10:05:37.732Z,59.28
2022-11-26T10:06:51.246Z,59.90
2022-11-26T10:08:08.086Z,58.85
2022-11-26T10:09:09.699Z,59.60
2022-11-26T10:10:14.230Z,58.65
2022-11-26T10:11:22.021Z,59.20
2022-11-26T10:12:32.229Z,59.19
2022-11-26T10:13:53.184Z,58.81
2022-11-26T10:15:00.428Z,58.39
2022-11-26T10:16:05.861Z,58.29
2022-11-26T10:17:16.326Z,57.05
2022-11-26T10:18:30.050Z,57.63
2022-11-26T10:19:39.095Z,57.08
2022-11-26T10:20:59.391Z,56.54
2022-11-26T10:22:01.398Z,55.71
2022-11-26T10:23:04.176Z,55.33
2022-11-26T10:24:23.868Z,56.01
2022-11-26T10:25:29.165Z,56.33
2022-11-26T10:26:34.312Z,55.68
2022-11-26T10:27:36.513Z,55.47
2022-11-26T10:28:53.253Z,55.59
2022-11-26T10:29:55.945Z,56.13
2022-11-26T10:30:59.364Z,56.44
2022-11-26T10:32:02.089Z,56.62
2022-11-26T10:33:03.615Z,56.71
2022-11-26T10:34:08.507Z,56.70
2022-11-26T10:35:13.871Z,57.06
2022-11-26T10:36:20.784Z,57.38
2022-11-26T10:37:23.365Z,57.44
2022-11-26T10:38:24.893Z,56.90
2022-11-26T10:39:27.494Z,57.16
2022-11-26T10:40:29.554Z,57.15
2022-11-26T10:41:33.217Z,57.56
2022-11-26T10:42:42.056Z,57.96
2022-11-26T10:43:43.659Z,58.01
2022-11-26T10:44:45.171Z,57.73
2022-11-26T10:45:56.623Z,57.75
2022-11-26T10:46:58.632Z,57.54
2022-11-26T10:48:36.406Z,57.16
2022-11-26T10:49:40.780Z,57.95
2022-11-26T10:50:47.842Z,58.41
2022-11-26T10:51:50.137Z,58.53
2022-11-26T10:52:52.165Z,58.36
2022-11-26T10:54:00.364Z,58.38
2022-11-26T10:55:10.760Z,58.31
2022-11-26T10:56:13.359Z,58.72
2022-11-26T10:57:16.012Z,58.47
2022-11-26T10:58:19.464Z,58.31
2022-11-26T10:59:28.866Z,58.54
2022-11-26T11:00:41.078Z,58.30
2022-11-26T11:01:43.459Z,58.63
2022-11-26T11:02:47.529Z,58.58
2022-11-26T11:04:07.752Z,58.62
2022-11-26T11:05:09.976Z,58.54
2022-11-26T11:06:12.888Z,58.14
2022-11-26T11:07:33.535Z,58.22
2022-11-26T11:08:35.223Z,58.50
2022-11-26T11:09:43.095Z,58.23
2022-11-26T11:10:57.323Z,58.02
2022-11-26T11:12:18.137Z,57.98
2022-11-26T11:13:19.863Z,58.54
2022-11-26T11:14:27.968Z,58.74
2022-11-26T11:15:31.242Z,58.71
2022-11-26T11:16:39.651Z,58.18
2022-11-26T11:17:41.372Z,57.94
2022-11-26T11:18:56.078Z,57.64
2022-11-26T11:19:59.077Z,57.26
2022-11-26T11:21:03.591Z,57.60
2022-11-26T11:22:05.576Z,57.18
2022-11-26T11:23:10.487Z,57.45
2022-11-26T11:24:27.137Z,57.26
2022-11-26T11:25:34.356Z,57.62
2022-11-26T11:26:43.503Z,57.59
2022-11-26T11:27:45.136Z,57.78
2022-11-26T11:28:47.767Z,58.06
2022-11-26T11:29:49.393Z,58.27
2022-11-26T11:30:58.676Z,58.41
2022-11-26T11:32:04.559Z,58.49
2022-11-26T11:33:10.136Z,58.38
2022-11-26T11:34:12.919Z,58.42
2022-11-26T11:35:20.328Z,58.62
2022-11-26T11:36:28.968Z,58.76
2022-11-26T11:37:30.469Z,58.71
2022-11-26T11:38:33.126Z,58.91
2022-11-26T11:39:35.272Z,58.91
2022-11-26T11:40:41.083Z,58.81
2022-11-26T11:41:44.502Z,59.22
2022-11-26T11:42:56.474Z,59.16
2022-11-26T11:44:06.115Z,59.54
2022-11-26T11:45:17.362Z,59.58
2022-11-26T11:46:37.458Z,59.32
2022-11-26T11:47:45.135Z,59.17
2022-11-26T11:48:47.102Z,59.58
2022-11-26T11:49:50.742Z,59.71
2022-11-26T11:50:55.028Z,59.63
2022-11-26T11:52:03.618Z,59.52
2022-11-26T11:53:13.725Z,59.36
2022-11-26T11:54:27.410Z,59.46
2022-11-26T11:55:32.986Z,59.29
2022-11-26T11:56:39.043Z,59.73
2022-11-26T11:57:58.373Z,59.94
2022-11-26T11:59:06.857Z,59.76
2022-11-26T12:00:13.485Z,59.96
2022-11-26T12:01:30.718Z,59.95
2022-11-26T12:02:50.681Z,59.73
2022-11-26T12:03:52.182Z,59.84
2022-11-26T12:04:57.064Z,59.89
2022-11-26T12:06:04.736Z,60.02
2022-11-26T12:07:28.197Z,59.97
2022-11-26T12:08:49.222Z,59.83
2022-11-26T12:10:09.705Z,59.96
2022-11-26T12:11:35.054Z,59.86
2022-11-26T12:12:59.803Z,59.29
2022-11-26T12:14:03.106Z,59.39
2022-11-26T12:15:10.522Z,59.07
2022-11-26T12:16:12.411Z,59.23
2022-11-26T12:17:14.035Z,59.27
2022-11-26T12:18:21.783Z,59.07
2022-11-26T12:19:39.645Z,59.36
2022-11-26T12:20:44.157Z,59.13
2022-11-26T12:21:51.465Z,59.06
2022-11-26T12:22:58.255Z,59.16
2022-11-26T12:24:23.039Z,59.52
2022-11-26T12:25:37.425Z,60.05
2022-11-26T12:26:58.847Z,59.93
2022-11-26T12:28:07.281Z,59.91
2022-11-26T12:29:12.287Z,60.26
2022-11-26T12:30:20.925Z,60.11
2022-11-26T12:31:37.865Z,60.29
2022-11-26T12:32:49.874Z,60.18
2022-11-26T12:33:55.990Z,60.11
2022-11-26T12:34:58.339Z,60.18
2022-11-26T12:36:07.800Z,60.21
2022-11-26T12:37:13.047Z,60.19
2022-11-26T12:38:19.079Z,60.41
2022-11-26T12:39:45.316Z,60.36
2022-11-26T12:40:51.289Z,60.33
2022-11-26T12:41:56.780Z,60.70
2022-11-26T12:43:02.714Z,60.65
2022-11-26T12:44:12.829Z,60.52
2022-11-26T12:45:24.549Z,60.46
2022-11-26T12:46:26.006Z,60.56
2022-11-26T12:47:37.071Z,60.39
2022-11-26T12:48:39.582Z,60.49
2022-11-26T12:49:54.875Z,60.38
2022-11-26T12:51:01.691Z,60.57
2022-11-26T12:52:07.052Z,60.74
2022-11-26T12:53:13.975Z,60.71
2022-11-26T12:54:15.735Z,60.78
2022-11-26T12:55:22.096Z,60.68
2022-11-26T12:56:30.975Z,60.75
2022-11-26T12:57:39.671Z,60.64
2022-11-26T12:58:44.714Z,60.68
2022-11-26T13:00:06.849Z,61.06
2022-11-26T13:01:11.564Z,61.10
2022-11-26T13:02:19.038Z,61.24
2022-11-26T13:03:32.186Z,61.33
2022-11-26T13:04:40.034Z,61.14
2022-11-26T13:06:00.598Z,61.34
2022-11-26T13:07:13.850Z,61.31
2022-11-26T13:08:21.299Z,61.30
2022-11-26T13:09:25.553Z,61.21
2022-11-26T13:10:29.383Z,61.08
2022-11-26T13:11:31.408Z,60.98
2022-11-26T13:12:39.105Z,60.73
2022-11-26T13:13:46.348Z,61.00
2022-11-26T13:15:03.803Z,61.25
2022-11-26T13:16:19.660Z,61.31
2022-11-26T13:17:23.423Z,61.14
2022-11-26T13:18:31.883Z,60.94
2022-11-26T13:19:38.347Z,60.91
2022-11-26T13:20:40.114Z,60.55
2022-11-26T13:21:47.667Z,60.78
2022-11-26T13:23:08.301Z,60.81
2022-11-26T13:24:13.519Z,60.89
2022-11-26T13:25:36.371Z,60.77
2022-11-26T13:26:43.926Z,60.62
2022-11-26T13:27:54.431Z,60.62
2022-11-26T13:29:20.029Z,60.85
2022-11-26T13:30:24.674Z,60.89
2022-11-26T13:31:52.788Z,60.88
2022-11-26T13:33:00.285Z,60.54
2022-11-26T13:34:06.706Z,60.61
2022-11-26T13:35:26.416Z,60.75
2022-11-26T13:36:33.838Z,60.54
2022-11-26T13:37:38.068Z,60.64
2022-11-26T13:38:58.257Z,60.13
2022-11-26T13:40:05.968Z,60.45
2022-11-26T13:41:07.510Z,60.20
2022-11-26T13:42:12.252Z,60.36
2022-11-26T13:43:25.933Z,60.60
2022-11-26T13:44:30.503Z,60.22
2022-11-26T13:45:47.348Z,60.36
2022-11-26T13:46:54.953Z,60.55
2022-11-26T13:47:59.552Z,60.24
2022-11-26T13:49:03.838Z,60.59
2022-11-26T13:50:05.268Z,60.57
2022-11-26T13:51:18.944Z,60.37
2022-11-26T13:52:30.780Z,60.40
2022-11-26T13:53:52.660Z,60.09
2022-11-26T13:55:02.496Z,60.06
2022-11-26T13:56:04.734Z,60.27
2022-11-26T13:57:17.099Z,60.03
2022-11-26T13:58:29.502Z,60.16